Time;durP1;ratioP1;P1;durP2;ratioP2;P2;SDS_P1;SDS_P2;PMS_P1;PMS_P2;Temp;Humidity;BMP_temperature;BMP_pressure;BME280_temperature;BME280_humidity;BME280_pressure;Samples;Min_cycle;Max_cycle;Signal;HPM_P1;HPM_P2
2021/08/24 00:00:16;;;;;;;1.90;0.90;;;18.60;99.90;;;;;;5076719;28;20424;-51
2021/08/24 00:02:43;;;;;;;1.20;0.90;;;18.50;99.90;;;;;;5076773;28;20420;-49
2021/08/24 00:05:11;;;;;;;2.13;0.93;;;18.40;99.90;;;;;;5076999;28;20787;-49
2021/08/24 00:07:38;;;;;;;1.20;0.80;;;18.30;99.90;;;;;;5076882;28;20510;-51
2021/08/24 00:10:09;;;;;;;1.60;1.50;;;18.30;99.90;;;;;;5076355;28;20419;-50
2021/08/24 00:12:36;;;;;;;1.30;0.90;;;18.50;99.90;;;;;;5075836;28;20885;-48
2021/08/24 00:15:05;;;;;;;1.30;1.00;;;18.50;99.90;;;;;;5075885;28;20423;-51
2021/08/24 00:17:32;;;;;;;1.10;0.90;;;18.60;99.90;;;;;;5075283;28;20427;-52
2021/08/24 00:19:59;;;;;;;1.90;0.90;;;18.50;99.90;;;;;;5075327;28;20847;-53
2021/08/24 00:22:26;;;;;;;2.70;1.00;;;18.30;99.90;;;;;;5074645;28;20434;-50
2021/08/24 00:24:53;;;;;;;1.10;0.80;;;18.10;99.90;;;;;;5074703;28;20420;-48
2021/08/24 00:27:20;;;;;;;1.05;0.80;;;18.00;99.90;;;;;;5074682;28;20418;-49
2021/08/24 00:29:47;;;;;;;1.55;0.90;;;18.10;99.90;;;;;;5074700;28;20455;-51
2021/08/24 00:32:15;;;;;;;1.55;0.80;;;18.10;99.90;;;;;;5075425;28;20522;-49
2021/08/24 00:34:42;;;;;;;1.40;0.90;;;18.20;99.90;;;;;;5075769;28;20853;-52
2021/08/24 00:37:09;;;;;;;1.33;0.80;;;18.20;99.90;;;;;;5075765;28;20526;-53
2021/08/24 00:39:35;;;;;;;1.10;0.90;;;18.00;99.90;;;;;;5073471;28;20430;-52
2021/08/24 00:42:02;;;;;;;1.20;0.90;;;17.90;99.90;;;;;;5074748;28;20532;-50
2021/08/24 00:44:29;;;;;;;1.10;0.80;;;18.00;99.90;;;;;;5074310;28;20416;-54
2021/08/24 00:46:56;;;;;;;1.10;0.80;;;18.10;99.90;;;;;;5074522;28;20434;-53
2021/08/24 00:49:27;;;;;;;1.00;0.80;;;18.10;99.90;;;;;;5074050;28;20506;-53
2021/08/24 00:52:01;;;;;;;1.00;0.80;;;18.20;99.90;;;;;;5075687;28;20443;-53
2021/08/24 00:54:29;;;;;;;1.30;0.70;;;18.20;99.90;;;;;;5075636;28;20518;-53
2021/08/24 00:56:59;;;;;;;0.97;0.70;;;18.30;99.90;;;;;;5075614;28;20987;-52
2021/08/24 00:59:26;;;;;;;1.13;0.75;;;18.40;99.90;;;;;;5075624;28;20426;-53
2021/08/24 01:01:53;;;;;;;1.20;0.70;;;18.20;99.90;;;;;;5074691;28;20518;-52
2021/08/24 01:04:23;;;;;;;0.88;0.60;;;18.20;99.90;;;;;;5075497;28;20482;-50
2021/08/24 01:06:56;;;;;;;1.00;0.70;;;18.00;99.90;;;;;;5075384;28;20438;-53
2021/08/24 01:09:36;;;;;;;1.40;0.70;;;17.90;99.90;;;;;;5075478;28;20873;-49
2021/08/24 01:12:12;;;;;;;1.20;0.70;;;17.90;99.90;;;;;;5074945;28;20442;-47
2021/08/24 01:14:51;;;;;;;1.00;0.70;;;17.70;99.90;;;;;;5075868;28;20831;-48
2021/08/24 01:17:21;;;;;;;2.30;0.90;;;17.60;99.90;;;;;;5075593;28;20723;-49
2021/08/24 01:20:24;;;;;;;1.00;0.70;;;17.40;99.90;;;;;;5074302;28;20514;-52
2021/08/24 01:23:40;;;;;;;1.70;0.90;;;17.30;99.90;;;;;;5073856;28;20416;-49
2021/08/24 01:26:13;;;;;;;2.10;0.70;;;17.50;99.90;;;;;;5073850;28;20415;-52
2021/08/24 01:28:52;;;;;;;1.05;0.70;;;17.60;99.90;;;;;;5073885;28;20418;-51
2021/08/24 01:31:47;;;;;;;0.80;0.70;;;17.80;99.90;;;;;;5074097;28;20427;-55
2021/08/24 01:34:26;;;;;;;0.85;0.63;;;18.00;99.90;;;;;;5065333;28;21043;-53
2021/08/24 01:37:00;;;;;;;1.00;0.70;;;17.90;99.90;;;;;;5075412;28;20795;-52
2021/08/24 01:39:32;;;;;;;1.40;0.70;;;17.70;99.90;;;;;;5075491;28;20696;-52
2021/08/24 01:42:12;;;;;;;0.90;0.70;;;17.50;99.90;;;;;;5075082;28;20702;-52
2021/08/24 01:44:47;;;;;;;0.80;0.60;;;17.70;99.90;;;;;;5075224;28;20933;-51
2021/08/24 01:47:21;;;;;;;0.90;0.63;;;17.70;99.90;;;;;;5074818;28;20433;-52
2021/08/24 01:49:54;;;;;;;0.80;0.60;;;17.70;99.90;;;;;;5074762;28;20416;-53
2021/08/24 01:52:26;;;;;;;0.90;0.60;;;17.80;99.90;;;;;;5075241;28;20457;-52
2021/08/24 01:54:58;;;;;;;0.75;0.50;;;17.70;99.90;;;;;;5075093;28;20854;-53
2021/08/24 01:57:31;;;;;;;2.00;0.80;;;17.70;99.90;;;;;;5075030;28;20505;-47
2021/08/24 02:00:05;;;;;;;0.87;0.60;;;17.60;99.90;;;;;;5074951;28;20989;-47
2021/08/24 02:02:38;;;;;;;0.80;0.50;;;17.70;99.90;;;;;;5075029;28;20420;-52
2021/08/24 02:05:10;;;;;;;1.17;0.60;;;17.70;99.90;;;;;;5073891;28;20420;-52
2021/08/24 02:07:39;;;;;;;0.93;0.50;;;17.80;99.90;;;;;;5074101;28;20526;-51
2021/08/24 02:10:10;;;;;;;0.70;0.60;;;17.90;99.90;;;;;;5074925;28;20700;-51
2021/08/24 02:12:41;;;;;;;1.00;0.60;;;18.00;99.90;;;;;;5074614;28;20436;-52
2021/08/24 02:15:09;;;;;;;0.80;0.50;;;17.90;99.90;;;;;;5078543;28;20419;-50
2021/08/24 02:17:38;;;;;;;1.10;0.50;;;17.80;99.90;;;;;;5077705;28;20518;-50
2021/08/24 02:20:09;;;;;;;0.70;0.50;;;17.70;99.90;;;;;;5078002;28;20515;-50
2021/08/24 02:22:42;;;;;;;1.10;0.60;;;17.70;99.90;;;;;;5077732;28;20427;-52
2021/08/24 02:25:14;;;;;;;1.25;0.50;;;17.60;99.90;;;;;;5077333;28;20435;-51
2021/08/24 02:27:53;;;;;;;0.90;0.60;;;17.60;99.90;;;;;;5077622;28;20893;-52
2021/08/24 02:30:21;;;;;;;0.90;0.60;;;17.40;99.90;;;;;;5077567;28;20420;-54
2021/08/24 02:32:50;;;;;;;1.50;0.70;;;17.30;99.90;;;;;;5078318;28;20442;-51
2021/08/24 02:35:24;;;;;;;0.80;0.50;;;17.60;99.90;;;;;;5078853;28;20419;-52
2021/08/24 02:37:58;;;;;;;0.80;0.60;;;17.50;99.90;;;;;;5078406;28;20471;-51
2021/08/24 02:40:41;;;;;;;1.27;0.70;;;17.60;99.90;;;;;;5078233;28;20421;-49
2021/08/24 02:43:22;;;;;;;0.80;0.60;;;17.50;99.90;;;;;;5077656;28;20426;-52
2021/08/24 02:46:02;;;;;;;0.80;0.60;;;17.60;99.90;;;;;;5077008;28;20516;-52
2021/08/24 02:48:32;;;;;;;1.48;0.60;;;17.50;99.90;;;;;;5078285;28;20506;-52
2021/08/24 02:51:00;;;;;;;1.10;0.60;;;17.50;99.90;;;;;;5077934;28;20425;-53
2021/08/24 02:53:28;;;;;;;0.80;0.60;;;17.50;99.90;;;;;;5078161;28;20691;-52
2021/08/24 02:55:55;;;;;;;0.80;0.60;;;17.50;99.90;;;;;;5077803;28;20826;-53
2021/08/24 02:58:22;;;;;;;1.30;0.70;;;17.40;99.90;;;;;;5076556;28;20426;-51
2021/08/24 03:00:49;;;;;;;1.00;0.70;;;17.30;99.90;;;;;;5076043;28;20821;-52
2021/08/24 03:03:17;;;;;;;0.90;0.60;;;17.20;99.90;;;;;;5076051;28;20419;-53
2021/08/24 03:05:44;;;;;;;0.80;0.60;;;17.20;99.90;;;;;;5076387;28;20423;-52
2021/08/24 03:08:12;;;;;;;1.00;0.60;;;17.10;99.90;;;;;;5076583;28;20871;-51
2021/08/24 03:10:45;;;;;;;0.80;0.60;;;17.10;99.90;;;;;;5076198;28;20430;-49
2021/08/24 03:13:22;;;;;;;0.90;0.60;;;17.30;99.90;;;;;;5076170;28;20436;-50
2021/08/24 03:15:55;;;;;;;1.10;0.70;;;17.20;99.90;;;;;;5076940;28;20506;-51
2021/08/24 03:18:26;;;;;;;0.90;0.70;;;17.10;99.90;;;;;;5076989;28;20423;-52
2021/08/24 03:20:57;;;;;;;0.90;0.70;;;16.80;99.90;;;;;;5076592;28;20426;-51
2021/08/24 03:23:27;;;;;;;1.35;0.60;;;16.70;99.90;;;;;;5076079;28;20415;-53
2021/08/24 03:25:56;;;;;;;0.80;0.60;;;16.80;99.90;;;;;;5074913;28;20428;-50
2021/08/24 03:28:24;;;;;;;0.90;0.70;;;16.80;99.90;;;;;;5076026;28;20549;-51
2021/08/24 03:30:52;;;;;;;0.90;0.60;;;16.90;99.90;;;;;;5075921;28;20746;-54
2021/08/24 03:33:20;;;;;;;2.00;0.70;;;16.90;99.90;;;;;;5075091;28;20667;-49
2021/08/24 03:35:46;;;;;;;0.80;0.70;;;16.90;99.90;;;;;;5074882;28;20420;-47
2021/08/24 03:38:14;;;;;;;1.20;0.70;;;16.90;99.90;;;;;;5075950;28;20939;-51
2021/08/24 03:40:41;;;;;;;1.42;0.70;;;16.90;99.90;;;;;;5075438;28;20434;-52
2021/08/24 03:43:10;;;;;;;0.90;0.70;;;16.80;99.90;;;;;;5075924;28;20664;-48
2021/08/24 03:45:37;;;;;;;1.40;0.70;;;16.50;99.90;;;;;;5076303;28;20744;-52
2021/08/24 03:48:05;;;;;;;1.17;0.80;;;16.40;99.90;;;;;;5075557;28;20420;-52
2021/08/24 03:50:33;;;;;;;1.00;0.70;;;16.30;99.90;;;;;;5076716;28;20429;-52
2021/08/24 03:53:00;;;;;;;1.15;0.70;;;16.30;99.90;;;;;;5076743;28;20591;-50
2021/08/24 03:55:26;;;;;;;1.40;0.73;;;16.30;99.90;;;;;;5075644;28;20923;-50
2021/08/24 03:57:53;;;;;;;1.80;0.73;;;16.30;99.90;;;;;;5075381;28;20415;-51
2021/08/24 04:00:22;;;;;;;2.70;0.80;;;16.40;99.90;;;;;;5075311;28;20422;-49
2021/08/24 04:02:48;;;;;;;0.90;0.70;;;16.60;99.90;;;;;;5075628;28;20723;-52
2021/08/24 04:05:15;;;;;;;2.30;0.70;;;16.70;99.90;;;;;;5076084;28;20708;-53
2021/08/24 04:07:45;;;;;;;1.15;0.60;;;16.90;99.90;;;;;;5075831;28;20434;-49
2021/08/24 04:10:13;;;;;;;0.95;0.70;;;16.90;99.90;;;;;;5075727;28;20427;-50
2021/08/24 04:12:41;;;;;;;1.60;0.70;;;16.90;99.90;;;;;;5076278;28;20434;-52
2021/08/24 04:15:09;;;;;;;1.23;0.73;;;16.90;99.90;;;;;;5074759;28;20423;-53
2021/08/24 04:17:38;;;;;;;1.10;0.60;;;17.00;99.90;;;;;;5076084;28;20435;-53
2021/08/24 04:20:08;;;;;;;1.07;0.80;;;17.00;99.90;;;;;;5075685;28;20416;-51
2021/08/24 04:22:35;;;;;;;1.17;0.70;;;16.80;99.90;;;;;;5076804;28;20427;-52
2021/08/24 04:25:02;;;;;;;1.50;0.70;;;16.60;99.90;;;;;;5076485;28;20462;-50
2021/08/24 04:27:29;;;;;;;2.30;0.70;;;16.30;99.90;;;;;;5075433;28;20428;-52
2021/08/24 04:29:56;;;;;;;2.70;0.80;;;16.30;99.90;;;;;;5076351;28;20436;-50
2021/08/24 04:32:26;;;;;;;2.05;1.60;;;16.50;99.90;;;;;;5076527;28;20430;-53
2021/08/24 04:34:54;;;;;;;1.25;0.60;;;16.50;99.90;;;;;;5076109;28;20419;-51
2021/08/24 04:37:21;;;;;;;1.10;0.70;;;16.50;99.90;;;;;;5075758;28;20437;-51
2021/08/24 04:39:48;;;;;;;1.10;0.75;;;16.40;99.90;;;;;;5075667;28;20463;-51
2021/08/24 04:42:15;;;;;;;2.60;0.90;;;16.20;99.90;;;;;;5075037;28;20719;-49
2021/08/24 04:44:42;;;;;;;1.13;0.70;;;16.00;99.90;;;;;;5075031;28;20438;-50
2021/08/24 04:47:10;;;;;;;1.48;0.80;;;15.90;99.90;;;;;;5075360;28;20805;-52
2021/08/24 04:49:37;;;;;;;1.90;0.90;;;16.00;99.90;;;;;;5075122;28;20419;-52
2021/08/24 04:52:05;;;;;;;1.38;0.80;;;16.00;99.90;;;;;;5073989;28;20518;-50
2021/08/24 04:54:34;;;;;;;1.00;0.80;;;16.10;99.90;;;;;;5074283;28;20427;-48
2021/08/24 04:57:02;;;;;;;1.60;0.80;;;16.10;99.90;;;;;;5074293;28;20842;-46
2021/08/24 04:59:29;;;;;;;1.90;0.80;;;16.30;99.90;;;;;;5074652;28;20754;-48
2021/08/24 05:01:56;;;;;;;1.00;0.80;;;16.40;99.90;;;;;;5073928;28;20514;-52
2021/08/24 05:04:23;;;;;;;1.17;0.75;;;16.50;99.90;;;;;;5074786;28;20419;-50
2021/08/24 05:06:51;;;;;;;1.05;0.77;;;16.50;99.90;;;;;;5075572;28;20446;-52
2021/08/24 05:09:19;;;;;;;1.00;0.70;;;16.60;99.90;;;;;;5075452;28;20459;-48
2021/08/24 05:11:46;;;;;;;1.10;0.70;;;16.70;99.90;;;;;;5075340;28;20459;-47
2021/08/24 05:14:13;;;;;;;1.88;0.82;;;16.80;99.90;;;;;;5075328;28;20518;-49
2021/08/24 05:16:41;;;;;;;1.35;1.10;;;16.70;99.90;;;;;;5074988;28;20529;-52
2021/08/24 05:19:08;;;;;;;1.20;0.70;;;16.70;99.90;;;;;;5073616;28;20415;-48
2021/08/24 05:21:36;;;;;;;1.30;0.82;;;16.80;99.90;;;;;;5088040;28;20430;-50
2021/08/24 05:24:04;;;;;;;1.23;0.70;;;16.70;99.90;;;;;;5093846;28;20418;-50
2021/08/24 05:26:32;;;;;;;0.90;0.70;;;16.70;99.90;;;;;;5092554;28;20422;-50
2021/08/24 05:28:59;;;;;;;1.20;0.80;;;16.70;99.90;;;;;;5093134;28;20871;-51
2021/08/24 05:31:26;;;;;;;1.20;0.80;;;16.60;99.90;;;;;;5093906;28;20422;-48
2021/08/24 05:33:52;;;;;;;1.07;0.70;;;16.60;99.90;;;;;;5094110;28;20436;-51
2021/08/24 05:36:20;;;;;;;1.80;0.70;;;16.60;99.90;;;;;;5093927;28;20830;-51
2021/08/24 05:38:46;;;;;;;1.42;0.80;;;16.70;99.90;;;;;;5092218;28;20410;-50
2021/08/24 05:41:13;;;;;;;1.50;0.80;;;16.80;99.90;;;;;;5093233;28;20633;-47
2021/08/24 05:43:41;;;;;;;1.40;0.70;;;16.80;99.90;;;;;;5094580;28;20496;-51
2021/08/24 05:46:11;;;;;;;1.80;0.80;;;16.80;99.90;;;;;;5093862;28;20422;-53
2021/08/24 05:48:38;;;;;;;1.70;0.80;;;17.00;99.90;;;;;;5090600;28;20830;-49
2021/08/24 05:51:09;;;;;;;1.90;0.90;;;17.00;99.90;;;;;;5091287;28;20496;-51
2021/08/24 05:53:36;;;;;;;1.30;0.73;;;17.00;99.90;;;;;;5090303;28;20425;-51
2021/08/24 05:56:06;;;;;;;2.30;0.90;;;17.00;99.90;;;;;;5091387;28;20867;-48
2021/08/24 05:58:33;;;;;;;2.20;0.90;;;17.00;99.90;;;;;;5091456;28;20424;-53
2021/08/24 06:01:01;;;;;;;1.20;0.80;;;17.20;99.90;;;;;;5090668;28;20596;-51
2021/08/24 06:03:28;;;;;;;2.00;1.10;;;17.30;99.90;;;;;;5093590;28;20414;-52
2021/08/24 06:05:55;;;;;;;2.08;0.90;;;17.30;99.90;;;;;;5094189;28;20417;-54
2021/08/24 06:08:22;;;;;;;1.20;0.90;;;17.40;99.90;;;;;;5094747;28;20424;-47
2021/08/24 06:10:49;;;;;;;1.60;0.90;;;17.50;99.90;;;;;;5094232;28;20505;-52
2021/08/24 06:13:15;;;;;;;2.00;1.00;;;17.50;99.90;;;;;;5093835;28;20421;-50
2021/08/24 06:15:42;;;;;;;1.30;1.03;;;17.40;99.90;;;;;;5094227;28;20417;-51
2021/08/24 06:18:11;;;;;;;1.47;1.10;;;17.10;99.90;;;;;;5094018;28;20434;-52
2021/08/24 06:20:37;;;;;;;1.30;1.00;;;17.00;99.90;;;;;;5093276;28;20417;-51
2021/08/24 06:23:04;;;;;;;2.10;0.98;;;16.90;99.90;;;;;;5092591;28;20845;-53
2021/08/24 06:25:31;;;;;;;1.60;1.00;;;17.00;99.90;;;;;;5092379;28;20420;-51
2021/08/24 06:27:58;;;;;;;1.38;0.98;;;17.20;99.90;;;;;;5094213;28;20425;-51
2021/08/24 06:30:25;;;;;;;1.90;0.90;;;16.90;99.90;;;;;;5094360;28;20426;-53
2021/08/24 06:32:56;;;;;;;1.90;0.80;;;16.70;99.90;;;;;;5093836;28;20425;-50
2021/08/24 06:35:25;;;;;;;1.00;0.70;;;16.70;99.90;;;;;;5093229;28;20841;-52
2021/08/24 06:37:51;;;;;;;1.40;0.80;;;17.00;99.90;;;;;;5093784;28;20896;-48
2021/08/24 06:40:18;;;;;;;2.80;0.80;;;17.10;99.90;;;;;;5092621;28;20737;-50
2021/08/24 06:42:48;;;;;;;1.30;0.80;;;17.10;99.90;;;;;;5092530;28;20505;-48
2021/08/24 06:45:21;;;;;;;1.00;0.80;;;17.50;99.90;;;;;;5092844;28;20549;-52
2021/08/24 06:47:48;;;;;;;1.73;0.90;;;17.60;99.90;;;;;;5093028;28;20425;-53
2021/08/24 06:50:15;;;;;;;1.10;0.80;;;17.60;99.90;;;;;;5091584;28;20440;-52
2021/08/24 06:52:43;;;;;;;1.20;0.80;;;17.70;99.90;;;;;;5092500;28;20432;-48
2021/08/24 06:55:15;;;;;;;1.40;1.00;;;17.60;99.90;;;;;;5090509;28;20434;-49
2021/08/24 06:57:44;;;;;;;1.60;0.73;;;17.50;99.90;;;;;;5074152;28;20431;-50
2021/08/24 07:00:15;;;;;;;1.00;0.80;;;17.50;99.90;;;;;;5087609;28;20491;-52
2021/08/24 07:02:44;;;;;;;1.30;0.80;;;17.50;99.90;;;;;;5077306;28;20431;-58
2021/08/24 07:05:12;;;;;;;1.20;0.80;;;17.20;99.90;;;;;;5075130;28;20420;-58
2021/08/24 07:07:39;;;;;;;1.55;0.77;;;17.20;99.90;;;;;;5074645;28;20455;-58
2021/08/24 07:10:10;;;;;;;1.00;0.70;;;17.50;99.90;;;;;;5075613;28;20419;-57
2021/08/24 07:12:37;;;;;;;1.00;0.70;;;17.80;99.90;;;;;;5075091;28;20427;-57
2021/08/24 07:15:06;;;;;;;1.40;0.80;;;17.90;99.90;;;;;;5075392;28;20526;-57
2021/08/24 07:17:33;;;;;;;1.00;0.70;;;17.90;99.90;;;;;;5089852;28;20433;-58
2021/08/24 07:20:00;;;;;;;1.00;0.80;;;17.80;99.90;;;;;;5095778;28;20453;-59
2021/08/24 07:22:27;;;;;;;1.00;0.80;;;18.00;99.90;;;;;;5091833;28;20524;-59
2021/08/24 07:24:53;;;;;;;2.90;0.70;;;18.10;99.90;;;;;;5084646;28;20502;-60
2021/08/24 07:27:22;;;;;;;1.10;0.70;;;18.00;99.90;;;;;;5071416;28;20437;-60
2021/08/24 07:29:49;;;;;;;2.60;0.70;;;18.10;99.90;;;;;;5072591;28;20420;-59
2021/08/24 07:32:15;;;;;;;1.17;0.60;;;17.90;99.90;;;;;;5072812;28;20518;-59
2021/08/24 07:34:42;;;;;;;1.10;0.70;;;18.00;99.90;;;;;;5073194;28;20428;-60
2021/08/24 07:37:09;;;;;;;0.80;0.60;;;17.90;99.90;;;;;;5074680;28;20853;-59
2021/08/24 07:39:36;;;;;;;1.33;0.70;;;17.80;99.90;;;;;;5076062;28;20705;-59
2021/08/24 07:42:03;;;;;;;1.50;0.60;;;17.50;99.90;;;;;;5075392;28;20497;-59
2021/08/24 07:44:33;;;;;;;0.90;0.70;;;17.50;99.90;;;;;;5074381;28;20426;-59
2021/08/24 07:47:01;;;;;;;1.33;0.60;;;17.60;99.90;;;;;;5073519;28;20511;-60
2021/08/24 07:49:30;;;;;;;0.95;0.70;;;17.70;99.90;;;;;;5073930;28;20502;-60
2021/08/24 07:51:57;;;;;;;1.58;0.60;;;17.90;99.90;;;;;;5071851;28;20489;-58
2021/08/24 07:54:24;;;;;;;0.90;0.60;;;18.00;99.90;;;;;;5071197;28;20715;-59
2021/08/24 07:56:51;;;;;;;1.20;0.63;;;18.10;99.90;;;;;;5072387;28;20665;-59
2021/08/24 07:59:18;;;;;;;1.50;0.60;;;18.30;99.90;;;;;;5073494;28;20950;-59
2021/08/24 08:01:46;;;;;;;1.60;0.60;;;18.50;99.90;;;;;;5073004;28;20434;-60
2021/08/24 08:04:14;;;;;;;0.90;0.60;;;18.60;99.90;;;;;;5073416;28;20706;-59
2021/08/24 08:06:41;;;;;;;0.80;0.60;;;18.60;99.90;;;;;;5074142;28;20435;-58
2021/08/24 08:09:08;;;;;;;0.80;0.60;;;18.80;99.90;;;;;;5075313;28;20424;-58
2021/08/24 08:11:36;;;;;;;1.27;0.70;;;18.80;99.90;;;;;;5075140;28;20433;-57
2021/08/24 08:14:04;;;;;;;1.00;0.70;;;18.50;99.90;;;;;;5075847;28;20442;-56
2021/08/24 08:16:31;;;;;;;0.85;0.60;;;18.50;99.90;;;;;;5073850;28;20767;-58
2021/08/24 08:18:59;;;;;;;1.80;0.63;;;18.20;99.90;;;;;;5072893;28;20451;-59
2021/08/24 08:21:27;;;;;;;0.95;0.50;;;18.20;99.90;;;;;;5074064;28;20429;-58
2021/08/24 08:23:54;;;;;;;0.98;0.60;;;18.20;99.90;;;;;;5074258;28;20419;-58
2021/08/24 08:26:21;;;;;;;0.90;0.70;;;18.20;99.90;;;;;;5074155;28;20428;-57
2021/08/24 08:28:50;;;;;;;1.00;0.70;;;18.30;99.90;;;;;;5088520;28;20432;-58
2021/08/24 08:31:18;;;;;;;1.80;0.70;;;18.60;99.90;;;;;;5094643;28;20499;-56
2021/08/24 08:33:45;;;;;;;0.90;0.60;;;18.60;99.90;;;;;;5094845;28;20420;-58
2021/08/24 08:36:13;;;;;;;1.00;0.60;;;18.60;99.90;;;;;;5094637;28;20741;-58
2021/08/24 08:38:40;;;;;;;0.90;0.60;;;18.60;99.90;;;;;;5093162;28;20418;-58
2021/08/24 08:41:16;;;;;;;0.90;0.60;;;18.80;99.90;;;;;;5094106;28;20414;-59
2021/08/24 08:43:49;;;;;;;0.80;0.50;;;19.10;99.90;;;;;;5092277;28;20414;-58
2021/08/24 08:46:33;;;;;;;1.00;0.60;;;19.30;99.90;;;;;;5091847;28;20430;-59
2021/08/24 08:49:13;;;;;;;0.80;0.50;;;19.40;99.90;;;;;;5091937;28;20498;-58
2021/08/24 08:51:50;;;;;;;1.50;0.60;;;19.70;99.90;;;;;;5092850;28;20852;-57
2021/08/24 08:54:22;;;;;;;1.10;0.60;;;19.60;99.90;;;;;;5093301;28;20430;-58
2021/08/24 08:56:58;;;;;;;0.80;0.60;;;19.60;99.90;;;;;;5093020;28;20426;-58
2021/08/24 08:59:29;;;;;;;1.10;0.60;;;19.50;99.90;;;;;;5091824;28;20410;-58
2021/08/24 09:02:02;;;;;;;0.90;0.60;;;19.50;99.90;;;;;;5091777;28;20810;-55
2021/08/24 09:04:34;;;;;;;1.10;0.70;;;19.50;99.90;;;;;;5091818;28;20418;-56
2021/08/24 09:07:06;;;;;;;0.98;0.60;;;19.50;99.90;;;;;;5092894;28;20531;-54
2021/08/24 09:09:34;;;;;;;1.10;0.70;;;19.50;99.90;;;;;;5090344;28;20414;-57
2021/08/24 09:12:01;;;;;;;0.80;0.60;;;19.60;99.90;;;;;;5088973;28;20444;-57
2021/08/24 09:14:32;;;;;;;1.20;0.70;;;19.60;99.90;;;;;;5089082;28;20425;-58
2021/08/24 09:17:03;;;;;;;1.00;0.63;;;19.50;99.90;;;;;;5090837;28;20440;-58
2021/08/24 09:19:38;;;;;;;1.00;0.60;;;19.10;99.90;;;;;;5091126;28;20429;-59
2021/08/24 09:22:07;;;;;;;1.25;0.70;;;19.00;99.90;;;;;;5091479;28;20733;-58
2021/08/24 09:24:36;;;;;;;0.82;0.60;;;19.00;99.90;;;;;;5090212;28;20414;-59
2021/08/24 09:27:06;;;;;;;0.90;0.70;;;18.80;99.90;;;;;;5088258;28;20445;-60
2021/08/24 09:29:35;;;;;;;1.30;0.70;;;18.70;99.90;;;;;;5091756;28;20406;-59
2021/08/24 09:32:06;;;;;;;0.98;0.70;;;18.60;99.90;;;;;;5090592;28;20907;-59
2021/08/24 09:34:37;;;;;;;1.90;0.70;;;18.70;99.90;;;;;;5091538;28;20440;-59
2021/08/24 09:37:05;;;;;;;0.88;0.70;;;18.80;99.90;;;;;;5091404;28;20432;-59
2021/08/24 09:39:51;;;;;;;1.60;0.70;;;18.80;99.90;;;;;;5092739;28;20422;-58
2021/08/24 09:42:33;;;;;;;0.95;0.70;;;18.90;99.90;;;;;;5090766;28;21198;-58
2021/08/24 09:45:01;;;;;;;0.95;0.60;;;18.80;99.90;;;;;;5085836;28;20497;-55
2021/08/24 09:47:29;;;;;;;0.80;0.60;;;18.80;99.90;;;;;;5093136;28;20422;-51
2021/08/24 09:50:05;;;;;;;1.65;0.60;;;19.00;99.90;;;;;;5082511;28;20423;-48
2021/08/24 09:52:37;;;;;;;1.00;0.63;;;19.10;99.90;;;;;;5072913;28;20451;-51
2021/08/24 09:55:12;;;;;;;1.10;0.60;;;19.20;99.90;;;;;;5072644;28;20705;-51
2021/08/24 09:57:47;;;;;;;1.40;0.70;;;19.30;99.90;;;;;;5073075;28;20719;-52
2021/08/24 10:00:21;;;;;;;1.80;0.70;;;19.20;99.90;;;;;;5071092;28;20427;-48
2021/08/24 10:02:50;;;;;;;1.10;0.80;;;19.20;99.90;;;;;;5069541;28;20911;-52
2021/08/24 10:05:35;;;;;;;0.90;0.60;;;19.20;99.90;;;;;;5069919;28;20470;-52
2021/08/24 10:08:23;;;;;;;1.33;0.60;;;19.10;99.90;;;;;;5069956;28;20511;-49
2021/08/24 10:11:02;;;;;;;1.00;0.67;;;19.20;99.90;;;;;;5070568;28;20693;-52
2021/08/24 10:13:33;;;;;;;0.82;0.60;;;19.30;99.90;;;;;;5070519;28;20419;-52
2021/08/24 10:16:07;;;;;;;1.15;0.65;;;19.40;99.90;;;;;;5072159;28;20437;-51
2021/08/24 10:18:35;;;;;;;1.55;0.60;;;19.20;99.90;;;;;;5073394;28;20430;-52
2021/08/24 10:21:05;;;;;;;0.93;0.60;;;19.30;99.90;;;;;;5072058;28;20510;-52
2021/08/24 10:23:37;;;;;;;0.80;0.60;;;19.40;99.90;;;;;;5070262;28;20423;-52
2021/08/24 10:26:11;;;;;;;1.00;0.70;;;19.50;99.90;;;;;;5068598;28;20412;-51
2021/08/24 10:28:41;;;;;;;1.07;0.60;;;19.60;99.90;;;;;;5083123;28;20917;-56
2021/08/24 10:31:25;;;;;;;0.90;0.70;;;19.70;99.90;;;;;;5091997;28;20550;-57
2021/08/24 10:33:56;;;;;;;1.23;0.68;;;19.80;99.90;;;;;;5090725;28;20910;-57
2021/08/24 10:36:28;;;;;;;1.00;0.77;;;19.70;99.90;;;;;;5092334;28;20442;-57
2021/08/24 10:38:57;;;;;;;0.70;0.60;;;19.60;99.90;;;;;;5094368;28;20417;-58
2021/08/24 10:41:39;;;;;;;1.30;0.65;;;19.60;99.90;;;;;;5094051;28;20526;-58
2021/08/24 10:44:16;;;;;;;1.40;0.70;;;19.50;99.90;;;;;;5093793;28;20486;-57
2021/08/24 10:46:54;;;;;;;0.80;0.60;;;19.60;99.90;;;;;;5093655;28;20428;-58
2021/08/24 10:49:22;;;;;;;0.88;0.70;;;19.80;99.90;;;;;;5092751;28;20413;-58
2021/08/24 10:52:05;;;;;;;1.43;0.70;;;19.80;99.90;;;;;;5092237;28;20797;-57
2021/08/24 10:54:58;;;;;;;1.30;0.60;;;19.60;99.90;;;;;;5093979;28;20421;-58
2021/08/24 10:58:00;;;;;;;1.00;0.70;;;19.70;99.90;;;;;;5092064;28;20422;-57
2021/08/24 11:00:42;;;;;;;0.93;0.70;;;19.80;99.90;;;;;;5077292;28;20421;-57
2021/08/24 11:03:29;;;;;;;1.20;0.70;;;19.90;99.90;;;;;;5093068;28;20531;-58
2021/08/24 11:06:03;;;;;;;1.30;0.82;;;20.00;99.90;;;;;;5094803;28;20410;-58
2021/08/24 11:08:43;;;;;;;0.80;0.60;;;20.10;99.90;;;;;;5094889;28;20424;-58
2021/08/24 11:11:22;;;;;;;0.90;0.70;;;20.20;99.90;;;;;;5095132;28;20433;-58
2021/08/24 11:13:56;;;;;;;1.90;0.70;;;20.30;99.90;;;;;;5094955;28;20501;-58
2021/08/24 11:16:35;;;;;;;1.40;0.80;;;20.40;99.90;;;;;;5094662;28;20702;-56
2021/08/24 11:19:13;;;;;;;1.20;0.70;;;20.20;99.90;;;;;;5095408;28;20428;-57
2021/08/24 11:21:47;;;;;;;0.90;0.70;;;20.10;99.90;;;;;;5094442;28;20718;-59
2021/08/24 11:24:26;;;;;;;0.90;0.70;;;20.10;99.90;;;;;;5093845;28;20418;-58
2021/08/24 11:26:59;;;;;;;0.80;0.70;;;19.90;99.90;;;;;;5092970;28;20414;-56
2021/08/24 11:29:34;;;;;;;1.40;0.70;;;19.80;99.90;;;;;;5094487;28;20421;-57
2021/08/24 11:32:08;;;;;;;1.00;0.70;;;19.60;99.90;;;;;;5093741;28;20776;-58
2021/08/24 11:34:40;;;;;;;0.88;0.70;;;19.80;99.90;;;;;;5093740;28;20829;-57
2021/08/24 11:37:10;;;;;;;1.10;0.77;;;19.70;99.90;;;;;;5093691;28;20440;-57
2021/08/24 11:39:44;;;;;;;0.80;0.70;;;19.30;99.90;;;;;;5094739;28;20418;-57
2021/08/24 11:42:18;;;;;;;1.90;0.80;;;19.20;99.90;;;;;;5095015;28;20417;-57
2021/08/24 11:44:52;;;;;;;1.20;0.80;;;19.30;99.90;;;;;;5095212;28;20421;-56
2021/08/24 11:47:24;;;;;;;0.90;0.70;;;19.50;99.90;;;;;;5095389;28;20514;-57
2021/08/24 11:49:56;;;;;;;0.80;0.70;;;19.90;99.90;;;;;;5095877;28;20422;-57
2021/08/24 11:52:27;;;;;;;1.30;0.70;;;20.10;99.90;;;;;;5095417;28;20425;-58
2021/08/24 11:55:03;;;;;;;1.88;0.70;;;20.10;99.90;;;;;;5094443;28;20422;-56
2021/08/24 11:57:35;;;;;;;0.93;0.70;;;20.10;99.90;;;;;;5094186;28;20432;-57
2021/08/24 12:00:06;;;;;;;1.70;0.70;;;20.30;99.90;;;;;;5095419;28;20811;-58
2021/08/24 12:02:37;;;;;;;1.10;0.70;;;20.50;99.90;;;;;;5091206;28;20465;-56
2021/08/24 12:05:05;;;;;;;0.90;0.70;;;20.60;99.90;;;;;;5073792;28;20510;-57
2021/08/24 12:07:34;;;;;;;3.70;0.70;;;20.50;99.90;;;;;;5074556;28;20427;-54
2021/08/24 12:10:05;;;;;;;0.90;0.70;;;20.30;99.90;;;;;;5072939;28;20548;-57
2021/08/24 12:12:47;;;;;;;1.00;0.70;;;20.50;99.90;;;;;;5073599;28;20427;-57
2021/08/24 12:15:32;;;;;;;1.50;0.80;;;20.60;99.90;;;;;;5072831;28;20419;-58
2021/08/24 12:18:05;;;;;;;1.02;0.60;;;20.60;99.90;;;;;;5073437;28;20434;-58
2021/08/24 12:20:37;;;;;;;1.08;0.80;;;20.30;99.90;;;;;;5072949;28;20716;-58
2021/08/24 12:23:06;;;;;;;1.10;0.70;;;20.00;99.90;;;;;;5071361;28;20433;-58
2021/08/24 12:25:36;;;;;;;1.05;0.77;;;20.30;99.90;;;;;;5070225;28;20691;-58
2021/08/24 12:28:06;;;;;;;1.20;0.80;;;20.00;99.90;;;;;;5073294;28;20428;-59
2021/08/24 12:30:57;;;;;;;2.13;0.77;;;19.80;99.90;;;;;;5073645;28;20819;-58
2021/08/24 12:33:33;;;;;;;1.00;0.70;;;19.70;99.90;;;;;;5073361;28;20430;-58
2021/08/24 12:36:01;;;;;;;1.00;0.80;;;19.80;99.90;;;;;;5071796;28;20435;-56
2021/08/24 12:38:46;;;;;;;1.10;0.80;;;20.20;99.90;;;;;;5071815;28;20686;-57
2021/08/24 12:41:47;;;;;;;1.30;0.80;;;20.30;99.90;;;;;;5070902;28;20424;-58
2021/08/24 12:44:24;;;;;;;1.40;0.90;;;19.90;99.90;;;;;;5073574;28;20453;-58
2021/08/24 12:46:53;;;;;;;2.00;0.80;;;20.00;99.90;;;;;;5072679;28;20514;-58
2021/08/24 12:49:41;;;;;;;1.00;0.80;;;20.00;99.90;;;;;;5069824;28;20574;-58
2021/08/24 12:52:36;;;;;;;1.10;0.80;;;20.00;99.90;;;;;;5069044;28;20531;-58
2021/08/24 13:05:26;;;;;;;1.10;0.70;;;19.70;99.90;;;;;;5070956;28;20837;-58
2021/08/24 13:08:06;;;;;;;1.00;0.70;;;19.70;99.90;;;;;;5070614;28;20427;-57
2021/08/24 13:10:35;;;;;;;0.90;0.70;;;19.70;99.90;;;;;;5083608;28;21009;-57
2021/08/24 13:13:04;;;;;;;0.90;0.70;;;19.80;99.90;;;;;;5091558;28;20512;-58
2021/08/24 13:15:55;;;;;;;1.67;0.70;;;19.90;99.90;;;;;;5092504;28;20456;-58
2021/08/24 13:18:28;;;;;;;1.00;0.70;;;20.00;99.90;;;;;;5093735;28;20409;-58